sensor_id;sensor_type;location;lat;lon;timestamp;temperature;humidity
3602;DHT22;1815;50.950;6.920;2024-01-25T00:01:12;11.60;99.90
3602;DHT22;1815;50.950;6.920;2024-01-25T00:03:38;11.60;99.90
3602;DHT22;1815;50.950;6.920;2024-01-25T00:06:07;11.60;99.90
3602;DHT22;1815;50.950;6.920;2024-01-25T00:08:33;11.60;99.90
3602;DHT22;1815;50.950;6.920;2024-01-25T00:11:03;11.60;99.90
3602;DHT22;1815;50.950;6.920;2024-01-25T00:13:29;11.60;99.90
3602;DHT22;1815;50.950;6.920;2024-01-25T00:15:55;11.50;99.90
3602;DHT22;1815;50.950;6.920;2024-01-25T00:18:21;11.50;99.90
3602;DHT22;1815;50.950;6.920;2024-01-25T00:20:47;11.50;99.90
3602;DHT22;1815;50.950;6.920;2024-01-25T00:23:12;11.50;99.90
3602;DHT22;1815;50.950;6.920;2024-01-25T00:25:38;11.50;99.90
3602;DHT22;1815;50.950;6.920;2024-01-25T00:28:04;11.50;99.90
3602;DHT22;1815;50.950;6.920;2024-01-25T00:30:30;11.50;99.90
3602;DHT22;1815;50.950;6.920;2024-01-25T00:32:59;11.50;99.90
3602;DHT22;1815;50.950;6.920;2024-01-25T00:35:25;11.50;99.90
3602;DHT22;1815;50.950;6.920;2024-01-25T00:37:51;11.50;99.90
3602;DHT22;1815;50.950;6.920;2024-01-25T00:40:17;11.50;99.90
3602;DHT22;1815;50.950;6.920;2024-01-25T00:42:45;11.40;99.90
3602;DHT22;1815;50.950;6.920;2024-01-25T00:45:19;11.40;99.90
3602;DHT22;1815;50.950;6.920;2024-01-25T00:47:45;11.40;99.90
3602;DHT22;1815;50.950;6.920;2024-01-25T00:50:11;11.40;99.90
3602;DHT22;1815;50.950;6.920;2024-01-25T00:52:37;11.40;99.90
3602;DHT22;1815;50.950;6.920;2024-01-25T00:55:03;11.40;99.90
3602;DHT22;1815;50.950;6.920;2024-01-25T00:57:29;11.40;99.90
3602;DHT22;1815;50.950;6.920;2024-01-25T00:59:55;11.40;99.90
3602;DHT22;1815;50.950;6.920;2024-01-25T01:02:22;11.40;99.90
3602;DHT22;1815;50.950;6.920;2024-01-25T01:04:48;11.40;99.90
3602;DHT22;1815;50.950;6.920;2024-01-25T01:07:15;11.30;99.90
3602;DHT22;1815;50.950;6.920;2024-01-25T01:09:40;11.30;99.90
3602;DHT22;1815;50.950;6.920;2024-01-25T01:12:06;11.30;99.90
3602;DHT22;1815;50.950;6.920;2024-01-25T01:14:32;11.30;99.90
3602;DHT22;1815;50.950;6.920;2024-01-25T01:16:58;11.20;99.90
3602;DHT22;1815;50.950;6.920;2024-01-25T01:19:24;11.20;99.90
3602;DHT22;1815;50.950;6.920;2024-01-25T01:21:49;11.10;99.90
3602;DHT22;1815;50.950;6.920;2024-01-25T01:24:15;11.10;99.90
3602;DHT22;1815;50.950;6.920;2024-01-25T01:26:41;11.00;99.90
3602;DHT22;1815;50.950;6.920;2024-01-25T01:29:07;11.00;99.90
3602;DHT22;1815;50.950;6.920;2024-01-25T01:31:33;10.90;99.90
3602;DHT22;1815;50.950;6.920;2024-01-25T01:33:59;10.90;99.90
3602;DHT22;1815;50.950;6.920;2024-01-25T01:36:26;10.80;99.90
3602;DHT22;1815;50.950;6.920;2024-01-25T01:38:51;10.80;99.90
3602;DHT22;1815;50.950;6.920;2024-01-25T01:41:17;10.70;99.90
3602;DHT22;1815;50.950;6.920;2024-01-25T01:43:43;10.70;99.90
3602;DHT22;1815;50.950;6.920;2024-01-25T01:48:50;10.60;99.90
3602;DHT22;1815;50.950;6.920;2024-01-25T01:51:16;10.60;99.90
3602;DHT22;1815;50.950;6.920;2024-01-25T01:53:42;10.50;99.90
3602;DHT22;1815;50.950;6.920;2024-01-25T01:56:09;10.50;99.90
3602;DHT22;1815;50.950;6.920;2024-01-25T01:58:35;10.40;99.90
3602;DHT22;1815;50.950;6.920;2024-01-25T02:01:02;10.40;99.90
3602;DHT22;1815;50.950;6.920;2024-01-25T02:03:28;10.30;99.90
3602;DHT22;1815;50.950;6.920;2024-01-25T02:05:54;10.30;99.90
3602;DHT22;1815;50.950;6.920;2024-01-25T02:08:20;10.30;99.90
3602;DHT22;1815;50.950;6.920;2024-01-25T02:10:46;10.20;99.90
3602;DHT22;1815;50.950;6.920;2024-01-25T02:13:12;10.20;99.90
3602;DHT22;1815;50.950;6.920;2024-01-25T02:15:37;10.20;99.90
3602;DHT22;1815;50.950;6.920;2024-01-25T02:18:03;10.20;99.90
3602;DHT22;1815;50.950;6.920;2024-01-25T02:20:29;10.10;99.90
3602;DHT22;1815;50.950;6.920;2024-01-25T02:22:54;10.10;99.90
3602;DHT22;1815;50.950;6.920;2024-01-25T02:25:20;10.10;99.90
3602;DHT22;1815;50.950;6.920;2024-01-25T02:27:45;10.10;99.90
3602;DHT22;1815;50.950;6.920;2024-01-25T02:30:11;10.00;99.90
3602;DHT22;1815;50.950;6.920;2024-01-25T02:32:37;10.00;99.90
3602;DHT22;1815;50.950;6.920;2024-01-25T02:35:03;10.00;99.90
3602;DHT22;1815;50.950;6.920;2024-01-25T02:37:28;10.00;99.90
3602;DHT22;1815;50.950;6.920;2024-01-25T02:39:54;10.00;99.90
3602;DHT22;1815;50.950;6.920;2024-01-25T02:42:20;10.00;99.90
3602;DHT22;1815;50.950;6.920;2024-01-25T02:44:45;9.90;99.90
3602;DHT22;1815;50.950;6.920;2024-01-25T02:47:11;9.90;99.90
3602;DHT22;1815;50.950;6.920;2024-01-25T02:49:37;9.90;99.90
3602;DHT22;1815;50.950;6.920;2024-01-25T02:52:03;9.90;99.90
3602;DHT22;1815;50.950;6.920;2024-01-25T02:54:29;9.90;99.90
3602;DHT22;1815;50.950;6.920;2024-01-25T02:57:18;9.80;99.90
3602;DHT22;1815;50.950;6.920;2024-01-25T02:59:43;9.80;99.90
3602;DHT22;1815;50.950;6.920;2024-01-25T03:02:09;9.80;99.90
3602;DHT22;1815;50.950;6.920;2024-01-25T03:04:35;9.80;99.90
3602;DHT22;1815;50.950;6.920;2024-01-25T03:07:01;9.80;99.90
3602;DHT22;1815;50.950;6.920;2024-01-25T03:09:27;9.80;99.90
3602;DHT22;1815;50.950;6.920;2024-01-25T03:11:53;9.80;99.90
3602;DHT22;1815;50.950;6.920;2024-01-25T03:14:19;9.80;99.90
3602;DHT22;1815;50.950;6.920;2024-01-25T03:16:45;9.80;99.90
3602;DHT22;1815;50.950;6.920;2024-01-25T03:19:11;9.80;99.90
3602;DHT22;1815;50.950;6.920;2024-01-25T03:21:36;9.80;99.90
3602;DHT22;1815;50.950;6.920;2024-01-25T03:24:02;9.70;99.90
3602;DHT22;1815;50.950;6.920;2024-01-25T03:26:28;9.70;99.90
3602;DHT22;1815;50.950;6.920;2024-01-25T03:28:54;9.70;99.90
3602;DHT22;1815;50.950;6.920;2024-01-25T03:31:19;9.70;99.90
3602;DHT22;1815;50.950;6.920;2024-01-25T03:33:45;9.70;99.90
3602;DHT22;1815;50.950;6.920;2024-01-25T03:36:14;9.60;99.90
3602;DHT22;1815;50.950;6.920;2024-01-25T03:38:41;9.60;99.90
3602;DHT22;1815;50.950;6.920;2024-01-25T03:41:07;9.60;99.90
3602;DHT22;1815;50.950;6.920;2024-01-25T03:43:32;9.50;99.90
3602;DHT22;1815;50.950;6.920;2024-01-25T03:45:58;9.50;99.90
3602;DHT22;1815;50.950;6.920;2024-01-25T03:48:24;9.50;99.90
3602;DHT22;1815;50.950;6.920;2024-01-25T03:50:49;9.50;99.90
3602;DHT22;1815;50.950;6.920;2024-01-25T03:53:15;9.50;99.90
3602;DHT22;1815;50.950;6.920;2024-01-25T03:55:41;9.50;99.90
3602;DHT22;1815;50.950;6.920;2024-01-25T03:58:07;9.40;99.90
3602;DHT22;1815;50.950;6.920;2024-01-25T04:00:32;9.40;99.90
3602;DHT22;1815;50.950;6.920;2024-01-25T04:02:58;9.40;99.90
3602;DHT22;1815;50.950;6.920;2024-01-25T04:05:24;9.40;99.90
3602;DHT22;1815;50.950;6.920;2024-01-25T04:07:52;9.40;99.90
3602;DHT22;1815;50.950;6.920;2024-01-25T04:10:17;9.30;99.90
3602;DHT22;1815;50.950;6.920;2024-01-25T04:12:43;9.30;99.90
3602;DHT22;1815;50.950;6.920;2024-01-25T04:15:09;9.30;99.90
3602;DHT22;1815;50.950;6.920;2024-01-25T04:17:35;9.30;99.90
3602;DHT22;1815;50.950;6.920;2024-01-25T04:20:01;9.30;99.90
3602;DHT22;1815;50.950;6.920;2024-01-25T04:22:26;9.20;99.90
3602;DHT22;1815;50.950;6.920;2024-01-25T04:24:52;9.20;99.90
3602;DHT22;1815;50.950;6.920;2024-01-25T04:27:18;9.20;99.90
3602;DHT22;1815;50.950;6.920;2024-01-25T04:29:44;9.20;99.90
3602;DHT22;1815;50.950;6.920;2024-01-25T04:32:09;9.20;99.90
3602;DHT22;1815;50.950;6.920;2024-01-25T04:34:36;9.20;99.90
3602;DHT22;1815;50.950;6.920;2024-01-25T04:37:01;9.10;99.90
3602;DHT22;1815;50.950;6.920;2024-01-25T04:39:27;9.10;99.90
3602;DHT22;1815;50.950;6.920;2024-01-25T04:41:53;9.10;99.90
3602;DHT22;1815;50.950;6.920;2024-01-25T04:44:19;9.10;99.90
3602;DHT22;1815;50.950;6.920;2024-01-25T04:46:45;9.10;99.90
3602;DHT22;1815;50.950;6.920;2024-01-25T04:49:11;9.00;99.90
3602;DHT22;1815;50.950;6.920;2024-01-25T04:51:36;9.00;99.90
3602;DHT22;1815;50.950;6.920;2024-01-25T04:54:02;9.00;99.90
3602;DHT22;1815;50.950;6.920;2024-01-25T04:56:28;9.00;99.90
3602;DHT22;1815;50.950;6.920;2024-01-25T04:58:54;8.90;99.90
3602;DHT22;1815;50.950;6.920;2024-01-25T05:01:20;8.90;99.90
3602;DHT22;1815;50.950;6.920;2024-01-25T05:03:46;8.90;99.90
3602;DHT22;1815;50.950;6.920;2024-01-25T05:06:11;8.90;99.90
3602;DHT22;1815;50.950;6.920;2024-01-25T05:08:38;8.80;99.90
3602;DHT22;1815;50.950;6.920;2024-01-25T05:11:04;8.80;99.90
3602;DHT22;1815;50.950;6.920;2024-01-25T05:13:30;8.80;99.90
3602;DHT22;1815;50.950;6.920;2024-01-25T05:15:55;8.70;99.90
3602;DHT22;1815;50.950;6.920;2024-01-25T05:18:21;8.70;99.90
3602;DHT22;1815;50.950;6.920;2024-01-25T05:20:47;8.70;99.90
3602;DHT22;1815;50.950;6.920;2024-01-25T05:23:12;8.70;99.90
3602;DHT22;1815;50.950;6.920;2024-01-25T05:25:38;8.60;99.90
3602;DHT22;1815;50.950;6.920;2024-01-25T05:28:04;8.70;99.90
3602;DHT22;1815;50.950;6.920;2024-01-25T05:30:30;8.60;99.90
3602;DHT22;1815;50.950;6.920;2024-01-25T05:32:56;8.60;99.90
3602;DHT22;1815;50.950;6.920;2024-01-25T05:35:21;8.60;99.90
3602;DHT22;1815;50.950;6.920;2024-01-25T05:37:49;8.60;99.90
3602;DHT22;1815;50.950;6.920;2024-01-25T05:40:14;8.50;99.90
3602;DHT22;1815;50.950;6.920;2024-01-25T05:42:40;8.50;99.90
3602;DHT22;1815;50.950;6.920;2024-01-25T05:45:06;8.50;99.90
3602;DHT22;1815;50.950;6.920;2024-01-25T05:47:33;8.50;99.90
3602;DHT22;1815;50.950;6.920;2024-01-25T05:50:00;8.40;99.90
3602;DHT22;1815;50.950;6.920;2024-01-25T05:52:26;8.40;99.90
3602;DHT22;1815;50.950;6.920;2024-01-25T05:54:52;8.40;99.90
3602;DHT22;1815;50.950;6.920;2024-01-25T05:57:17;8.40;99.90
3602;DHT22;1815;50.950;6.920;2024-01-25T05:59:44;8.40;99.90
3602;DHT22;1815;50.950;6.920;2024-01-25T06:02:10;8.40;99.90
3602;DHT22;1815;50.950;6.920;2024-01-25T06:04:35;8.30;99.90
3602;DHT22;1815;50.950;6.920;2024-01-25T06:07:01;8.30;99.90
3602;DHT22;1815;50.950;6.920;2024-01-25T06:09:28;8.30;99.90
3602;DHT22;1815;50.950;6.920;2024-01-25T06:11:53;8.20;99.90
3602;DHT22;1815;50.950;6.920;2024-01-25T06:14:20;8.20;99.90
3602;DHT22;1815;50.950;6.920;2024-01-25T06:16:45;8.20;99.90
3602;DHT22;1815;50.950;6.920;2024-01-25T06:19:11;8.10;99.90
3602;DHT22;1815;50.950;6.920;2024-01-25T06:21:37;8.10;99.90
3602;DHT22;1815;50.950;6.920;2024-01-25T06:24:06;8.10;99.90
3602;DHT22;1815;50.950;6.920;2024-01-25T06:26:32;8.10;99.90
3602;DHT22;1815;50.950;6.920;2024-01-25T06:28:58;8.10;99.90
3602;DHT22;1815;50.950;6.920;2024-01-25T06:31:27;8.00;99.90
3602;DHT22;1815;50.950;6.920;2024-01-25T06:33:53;8.00;99.90
3602;DHT22;1815;50.950;6.920;2024-01-25T06:36:19;8.00;99.90
3602;DHT22;1815;50.950;6.920;2024-01-25T06:38:45;8.00;99.90
3602;DHT22;1815;50.950;6.920;2024-01-25T06:41:11;7.90;99.90
3602;DHT22;1815;50.950;6.920;2024-01-25T06:43:36;7.90;99.90
3602;DHT22;1815;50.950;6.920;2024-01-25T06:46:02;7.90;99.90
3602;DHT22;1815;50.950;6.920;2024-01-25T06:48:28;7.90;99.90
3602;DHT22;1815;50.950;6.920;2024-01-25T06:50:54;7.90;99.90
3602;DHT22;1815;50.950;6.920;2024-01-25T06:53:21;7.90;99.90
3602;DHT22;1815;50.950;6.920;2024-01-25T06:55:47;7.90;99.90
3602;DHT22;1815;50.950;6.920;2024-01-25T06:58:12;7.90;99.90
3602;DHT22;1815;50.950;6.920;2024-01-25T07:00:39;7.90;99.90
3602;DHT22;1815;50.950;6.920;2024-01-25T07:03:05;7.90;99.90
3602;DHT22;1815;50.950;6.920;2024-01-25T07:05:31;7.80;99.90
3602;DHT22;1815;50.950;6.920;2024-01-25T07:07:59;7.90;99.90
3602;DHT22;1815;50.950;6.920;2024-01-25T07:10:25;7.80;99.90
3602;DHT22;1815;50.950;6.920;2024-01-25T07:12:51;7.80;99.90
3602;DHT22;1815;50.950;6.920;2024-01-25T07:15:18;7.80;99.90
3602;DHT22;1815;50.950;6.920;2024-01-25T07:17:44;7.80;99.90
3602;DHT22;1815;50.950;6.920;2024-01-25T07:20:10;7.80;99.90
3602;DHT22;1815;50.950;6.920;2024-01-25T07:22:35;7.80;99.90
3602;DHT22;1815;50.950;6.920;2024-01-25T07:25:01;7.90;99.90
3602;DHT22;1815;50.950;6.920;2024-01-25T07:27:27;7.90;99.90
3602;DHT22;1815;50.950;6.920;2024-01-25T07:29:53;7.90;99.90
3602;DHT22;1815;50.950;6.920;2024-01-25T07:32:19;7.90;99.90
3602;DHT22;1815;50.950;6.920;2024-01-25T07:34:45;7.90;99.90
3602;DHT22;1815;50.950;6.920;2024-01-25T07:37:12;7.90;99.90
3602;DHT22;1815;50.950;6.920;2024-01-25T07:39:38;7.90;99.90
3602;DHT22;1815;50.950;6.920;2024-01-25T07:42:04;7.90;99.90
3602;DHT22;1815;50.950;6.920;2024-01-25T07:44:30;7.90;99.90
3602;DHT22;1815;50.950;6.920;2024-01-25T07:46:56;8.00;99.90
3602;DHT22;1815;50.950;6.920;2024-01-25T07:49:21;8.00;99.90
3602;DHT22;1815;50.950;6.920;2024-01-25T07:51:48;8.00;99.90
3602;DHT22;1815;50.950;6.920;2024-01-25T07:54:14;8.10;99.90
3602;DHT22;1815;50.950;6.920;2024-01-25T07:56:40;8.20;99.90
3602;DHT22;1815;50.950;6.920;2024-01-25T07:59:06;8.20;99.90
3602;DHT22;1815;50.950;6.920;2024-01-25T08:01:32;8.20;99.90
3602;DHT22;1815;50.950;6.920;2024-01-25T08:03:58;8.20;99.90
3602;DHT22;1815;50.950;6.920;2024-01-25T08:06:25;8.30;99.90
3602;DHT22;1815;50.950;6.920;2024-01-25T08:08:52;8.40;99.90
3602;DHT22;1815;50.950;6.920;2024-01-25T08:11:18;8.50;99.90
3602;DHT22;1815;50.950;6.920;2024-01-25T08:13:46;8.60;99.90
3602;DHT22;1815;50.950;6.920;2024-01-25T08:16:12;8.60;99.90
3602;DHT22;1815;50.950;6.920;2024-01-25T08:18:39;8.70;99.90
3602;DHT22;1815;50.950;6.920;2024-01-25T08:21:05;8.90;99.90
3602;DHT22;1815;50.950;6.920;2024-01-25T08:23:31;9.00;99.90
3602;DHT22;1815;50.950;6.920;2024-01-25T08:25:57;9.10;99.90
3602;DHT22;1815;50.950;6.920;2024-01-25T08:28:23;9.20;99.90
3602;DHT22;1815;50.950;6.920;2024-01-25T08:30:49;9.40;99.90
3602;DHT22;1815;50.950;6.920;2024-01-25T08:33:16;9.50;99.90
3602;DHT22;1815;50.950;6.920;2024-01-25T08:35:42;9.60;99.90
3602;DHT22;1815;50.950;6.920;2024-01-25T08:38:07;9.70;99.90
3602;DHT22;1815;50.950;6.920;2024-01-25T08:40:33;9.90;99.90
3602;DHT22;1815;50.950;6.920;2024-01-25T08:42:59;10.00;99.90
3602;DHT22;1815;50.950;6.920;2024-01-25T08:45:25;10.00;99.90
3602;DHT22;1815;50.950;6.920;2024-01-25T08:47:51;10.20;99.90
3602;DHT22;1815;50.950;6.920;2024-01-25T08:50:18;10.30;99.90
3602;DHT22;1815;50.950;6.920;2024-01-25T08:52:43;10.30;99.90
3602;DHT22;1815;50.950;6.920;2024-01-25T08:55:09;10.40;99.90
3602;DHT22;1815;50.950;6.920;2024-01-25T08:57:35;10.50;99.90
3602;DHT22;1815;50.950;6.920;2024-01-25T09:00:02;10.60;99.90
3602;DHT22;1815;50.950;6.920;2024-01-25T09:02:28;10.70;99.90
3602;DHT22;1815;50.950;6.920;2024-01-25T09:04:55;10.80;99.90
3602;DHT22;1815;50.950;6.920;2024-01-25T09:07:22;10.80;99.90
3602;DHT22;1815;50.950;6.920;2024-01-25T09:09:48;11.00;99.90
3602;DHT22;1815;50.950;6.920;2024-01-25T09:12:15;11.10;99.90
3602;DHT22;1815;50.950;6.920;2024-01-25T09:14:42;11.10;99.90
3602;DHT22;1815;50.950;6.920;2024-01-25T09:17:08;11.20;99.90
3602;DHT22;1815;50.950;6.920;2024-01-25T09:19:35;11.30;99.90
3602;DHT22;1815;50.950;6.920;2024-01-25T09:22:01;11.40;99.90
3602;DHT22;1815;50.950;6.920;2024-01-25T09:24:30;11.50;99.90
3602;DHT22;1815;50.950;6.920;2024-01-25T09:26:56;11.50;99.90
3602;DHT22;1815;50.950;6.920;2024-01-25T09:29:24;11.50;99.90
3602;DHT22;1815;50.950;6.920;2024-01-25T09:31:50;11.50;99.90
3602;DHT22;1815;50.950;6.920;2024-01-25T09:34:16;11.60;99.90
3602;DHT22;1815;50.950;6.920;2024-01-25T09:36:41;11.60;99.90
3602;DHT22;1815;50.950;6.920;2024-01-25T09:39:07;11.70;99.90
3602;DHT22;1815;50.950;6.920;2024-01-25T09:41:36;11.70;99.90
3602;DHT22;1815;50.950;6.920;2024-01-25T09:44:01;11.80;99.90
3602;DHT22;1815;50.950;6.920;2024-01-25T09:46:29;11.90;99.90
3602;DHT22;1815;50.950;6.920;2024-01-25T09:48:55;12.00;99.90
3602;DHT22;1815;50.950;6.920;2024-01-25T09:51:20;12.10;99.90
3602;DHT22;1815;50.950;6.920;2024-01-25T09:53:49;12.20;99.90
3602;DHT22;1815;50.950;6.920;2024-01-25T09:56:17;12.20;99.90
3602;DHT22;1815;50.950;6.920;2024-01-25T09:58:45;12.30;99.90
3602;DHT22;1815;50.950;6.920;2024-01-25T10:01:13;12.40;99.90
3602;DHT22;1815;50.950;6.920;2024-01-25T10:03:42;12.40;99.90
3602;DHT22;1815;50.950;6.920;2024-01-25T10:06:08;12.50;99.90
3602;DHT22;1815;50.950;6.920;2024-01-25T10:08:34;12.50;99.90
3602;DHT22;1815;50.950;6.920;2024-01-25T10:11:00;12.50;99.90
3602;DHT22;1815;50.950;6.920;2024-01-25T10:13:28;12.50;99.90
3602;DHT22;1815;50.950;6.920;2024-01-25T10:15:53;12.50;99.90
3602;DHT22;1815;50.950;6.920;2024-01-25T10:18:21;12.50;99.90
3602;DHT22;1815;50.950;6.920;2024-01-25T10:20:47;12.50;99.90
3602;DHT22;1815;50.950;6.920;2024-01-25T10:23:13;12.50;99.90
3602;DHT22;1815;50.950;6.920;2024-01-25T10:25:39;12.50;99.90
3602;DHT22;1815;50.950;6.920;2024-01-25T10:28:06;12.60;99.90
3602;DHT22;1815;50.950;6.920;2024-01-25T10:30:33;12.70;99.90
3602;DHT22;1815;50.950;6.920;2024-01-25T10:33:01;12.70;99.90
3602;DHT22;1815;50.950;6.920;2024-01-25T10:35:27;12.70;99.90
3602;DHT22;1815;50.950;6.920;2024-01-25T10:37:54;12.80;99.90
3602;DHT22;1815;50.950;6.920;2024-01-25T10:40:20;12.90;99.90
3602;DHT22;1815;50.950;6.920;2024-01-25T10:42:46;13.00;99.90
3602;DHT22;1815;50.950;6.920;2024-01-25T10:45:13;13.00;99.90
3602;DHT22;1815;50.950;6.920;2024-01-25T10:47:39;13.00;99.90
3602;DHT22;1815;50.950;6.920;2024-01-25T10:50:07;13.10;99.90
3602;DHT22;1815;50.950;6.920;2024-01-25T10:52:37;13.20;99.90
3602;DHT22;1815;50.950;6.920;2024-01-25T10:55:05;13.20;99.90
3602;DHT22;1815;50.950;6.920;2024-01-25T10:57:37;13.30;99.90
3602;DHT22;1815;50.950;6.920;2024-01-25T11:00:07;13.40;99.90
3602;DHT22;1815;50.950;6.920;2024-01-25T11:02:35;13.40;99.90
3602;DHT22;1815;50.950;6.920;2024-01-25T11:05:01;13.50;99.90
3602;DHT22;1815;50.950;6.920;2024-01-25T11:07:28;13.60;99.90
3602;DHT22;1815;50.950;6.920;2024-01-25T11:09:55;13.60;99.90
3602;DHT22;1815;50.950;6.920;2024-01-25T11:12:21;13.70;99.90
3602;DHT22;1815;50.950;6.920;2024-01-25T11:14:54;13.70;99.90
3602;DHT22;1815;50.950;6.920;2024-01-25T11:17:21;13.80;99.90
3602;DHT22;1815;50.950;6.920;2024-01-25T11:19:50;13.80;99.90
3602;DHT22;1815;50.950;6.920;2024-01-25T11:22:16;13.90;99.90
3602;DHT22;1815;50.950;6.920;2024-01-25T11:24:42;13.90;99.90
3602;DHT22;1815;50.950;6.920;2024-01-25T11:27:09;13.90;99.90
3602;DHT22;1815;50.950;6.920;2024-01-25T11:29:35;14.00;99.90
3602;DHT22;1815;50.950;6.920;2024-01-25T11:32:03;14.00;99.90
3602;DHT22;1815;50.950;6.920;2024-01-25T11:34:29;14.00;99.90
3602;DHT22;1815;50.950;6.920;2024-01-25T11:36:57;14.00;99.90
3602;DHT22;1815;50.950;6.920;2024-01-25T11:39:26;14.10;99.90
3602;DHT22;1815;50.950;6.920;2024-01-25T11:41:51;14.10;99.90
3602;DHT22;1815;50.950;6.920;2024-01-25T11:44:17;14.20;99.90
3602;DHT22;1815;50.950;6.920;2024-01-25T11:46:43;14.30;99.90
3602;DHT22;1815;50.950;6.920;2024-01-25T11:49:09;14.30;99.90
3602;DHT22;1815;50.950;6.920;2024-01-25T11:51:35;14.40;99.90
3602;DHT22;1815;50.950;6.920;2024-01-25T11:54:00;14.50;99.90
3602;DHT22;1815;50.950;6.920;2024-01-25T11:56:29;14.50;99.90
3602;DHT22;1815;50.950;6.920;2024-01-25T11:58:55;14.50;99.90
3602;DHT22;1815;50.950;6.920;2024-01-25T12:01:26;14.60;99.90
3602;DHT22;1815;50.950;6.920;2024-01-25T12:03:53;14.70;99.90
3602;DHT22;1815;50.950;6.920;2024-01-25T12:06:19;14.70;99.90
3602;DHT22;1815;50.950;6.920;2024-01-25T12:08:45;14.70;99.90
3602;DHT22;1815;50.950;6.920;2024-01-25T12:11:14;14.80;99.90
3602;DHT22;1815;50.950;6.920;2024-01-25T12:13:41;14.80;99.90
3602;DHT22;1815;50.950;6.920;2024-01-25T12:16:08;14.80;99.90
3602;DHT22;1815;50.950;6.920;2024-01-25T12:18:34;14.90;99.90
3602;DHT22;1815;50.950;6.920;2024-01-25T12:21:04;14.90;99.90
3602;DHT22;1815;50.950;6.920;2024-01-25T12:23:31;14.90;99.90
3602;DHT22;1815;50.950;6.920;2024-01-25T12:26:03;14.90;99.90
3602;DHT22;1815;50.950;6.920;2024-01-25T12:28:30;15.00;99.90
3602;DHT22;1815;50.950;6.920;2024-01-25T12:30:56;15.00;99.90
3602;DHT22;1815;50.950;6.920;2024-01-25T12:33:22;15.00;99.90
3602;DHT22;1815;50.950;6.920;2024-01-25T12:35:48;15.00;99.90
3602;DHT22;1815;50.950;6.920;2024-01-25T12:38:13;15.10;99.90
3602;DHT22;1815;50.950;6.920;2024-01-25T12:40:41;15.20;99.90
3602;DHT22;1815;50.950;6.920;2024-01-25T12:43:07;15.20;99.90
3602;DHT22;1815;50.950;6.920;2024-01-25T12:45:34;15.30;99.90
3602;DHT22;1815;50.950;6.920;2024-01-25T12:47:59;15.30;99.90
3602;DHT22;1815;50.950;6.920;2024-01-25T12:50:25;15.30;99.90
3602;DHT22;1815;50.950;6.920;2024-01-25T12:52:51;15.40;99.90
3602;DHT22;1815;50.950;6.920;2024-01-25T12:55:16;15.30;99.90
3602;DHT22;1815;50.950;6.920;2024-01-25T12:57:42;15.30;99.90
3602;DHT22;1815;50.950;6.920;2024-01-25T13:00:08;15.30;99.90
3602;DHT22;1815;50.950;6.920;2024-01-25T13:02:34;15.20;99.90
3602;DHT22;1815;50.950;6.920;2024-01-25T13:05:00;15.20;99.90
3602;DHT22;1815;50.950;6.920;2024-01-25T13:07:26;15.20;99.90
3602;DHT22;1815;50.950;6.920;2024-01-25T13:09:52;15.10;99.90
3602;DHT22;1815;50.950;6.920;2024-01-25T13:12:17;15.10;99.90
3602;DHT22;1815;50.950;6.920;2024-01-25T13:14:43;15.10;99.90
3602;DHT22;1815;50.950;6.920;2024-01-25T13:17:09;15.00;99.90
3602;DHT22;1815;50.950;6.920;2024-01-25T13:19:34;15.00;99.90
3602;DHT22;1815;50.950;6.920;2024-01-25T13:22:00;15.00;99.90
3602;DHT22;1815;50.950;6.920;2024-01-25T13:24:26;15.00;99.90
3602;DHT22;1815;50.950;6.920;2024-01-25T13:26:52;14.90;99.90
3602;DHT22;1815;50.950;6.920;2024-01-25T13:29:17;14.90;99.90
3602;DHT22;1815;50.950;6.920;2024-01-25T13:31:43;14.90;99.90
3602;DHT22;1815;50.950;6.920;2024-01-25T13:34:09;14.90;99.90
3602;DHT22;1815;50.950;6.920;2024-01-25T13:36:35;14.90;99.90
3602;DHT22;1815;50.950;6.920;2024-01-25T13:39:01;14.90;99.90
3602;DHT22;1815;50.950;6.920;2024-01-25T13:41:29;14.90;99.90
3602;DHT22;1815;50.950;6.920;2024-01-25T13:43:55;14.90;99.90
3602;DHT22;1815;50.950;6.920;2024-01-25T13:46:20;14.90;99.90
3602;DHT22;1815;50.950;6.920;2024-01-25T13:48:46;14.90;99.90
3602;DHT22;1815;50.950;6.920;2024-01-25T13:51:12;14.90;99.90
3602;DHT22;1815;50.950;6.920;2024-01-25T13:53:38;14.90;99.90
3602;DHT22;1815;50.950;6.920;2024-01-25T13:56:04;14.90;99.90
3602;DHT22;1815;50.950;6.920;2024-01-25T13:58:29;14.90;99.90
3602;DHT22;1815;50.950;6.920;2024-01-25T14:00:55;14.90;99.90
3602;DHT22;1815;50.950;6.920;2024-01-25T14:03:21;14.90;99.90
3602;DHT22;1815;50.950;6.920;2024-01-25T14:05:46;14.80;99.90
3602;DHT22;1815;50.950;6.920;2024-01-25T14:08:12;14.80;99.90
3602;DHT22;1815;50.950;6.920;2024-01-25T14:10:38;14.80;99.90
3602;DHT22;1815;50.950;6.920;2024-01-25T14:13:04;14.80;99.90
3602;DHT22;1815;50.950;6.920;2024-01-25T14:15:29;14.80;99.90
3602;DHT22;1815;50.950;6.920;2024-01-25T14:17:55;14.80;99.90
3602;DHT22;1815;50.950;6.920;2024-01-25T14:20:21;14.80;99.90
3602;DHT22;1815;50.950;6.920;2024-01-25T14:22:48;14.70;99.90
3602;DHT22;1815;50.950;6.920;2024-01-25T14:25:14;14.70;99.90
3602;DHT22;1815;50.950;6.920;2024-01-25T14:27:39;14.70;99.90
3602;DHT22;1815;50.950;6.920;2024-01-25T14:30:06;14.70;99.90
3602;DHT22;1815;50.950;6.920;2024-01-25T14:32:32;14.70;99.90
3602;DHT22;1815;50.950;6.920;2024-01-25T14:34:58;14.60;99.90
3602;DHT22;1815;50.950;6.920;2024-01-25T14:37:24;14.60;99.90
3602;DHT22;1815;50.950;6.920;2024-01-25T14:39:50;14.60;99.90
3602;DHT22;1815;50.950;6.920;2024-01-25T14:42:15;14.60;99.90
3602;DHT22;1815;50.950;6.920;2024-01-25T14:44:44;14.50;99.90
3602;DHT22;1815;50.950;6.920;2024-01-25T14:47:10;14.50;99.90
3602;DHT22;1815;50.950;6.920;2024-01-25T14:49:37;14.50;99.90
3602;DHT22;1815;50.950;6.920;2024-01-25T14:52:03;14.40;99.90
3602;DHT22;1815;50.950;6.920;2024-01-25T14:54:29;14.40;99.90
3602;DHT22;1815;50.950;6.920;2024-01-25T14:56:58;14.30;99.90
3602;DHT22;1815;50.950;6.920;2024-01-25T14:59:39;14.20;99.90
3602;DHT22;1815;50.950;6.920;2024-01-25T15:02:05;14.20;99.90
3602;DHT22;1815;50.950;6.920;2024-01-25T15:04:31;14.10;99.90
3602;DHT22;1815;50.950;6.920;2024-01-25T15:06:56;14.00;99.90
3602;DHT22;1815;50.950;6.920;2024-01-25T15:09:22;14.00;99.90
3602;DHT22;1815;50.950;6.920;2024-01-25T15:11:48;14.00;99.90
3602;DHT22;1815;50.950;6.920;2024-01-25T15:14:14;14.00;99.90
3602;DHT22;1815;50.950;6.920;2024-01-25T15:16:40;14.00;99.90
3602;DHT22;1815;50.950;6.920;2024-01-25T15:19:06;13.90;99.90
3602;DHT22;1815;50.950;6.920;2024-01-25T15:21:31;14.00;99.90
3602;DHT22;1815;50.950;6.920;2024-01-25T15:23:57;14.00;99.90
3602;DHT22;1815;50.950;6.920;2024-01-25T15:26:23;14.00;99.90
3602;DHT22;1815;50.950;6.920;2024-01-25T15:28:49;14.00;99.90
3602;DHT22;1815;50.950;6.920;2024-01-25T15:31:15;14.00;99.90
3602;DHT22;1815;50.950;6.920;2024-01-25T15:33:41;14.00;99.90
3602;DHT22;1815;50.950;6.920;2024-01-25T15:36:07;14.00;99.90
3602;DHT22;1815;50.950;6.920;2024-01-25T15:38:33;14.00;99.90
3602;DHT22;1815;50.950;6.920;2024-01-25T15:41:01;14.00;99.90
3602;DHT22;1815;50.950;6.920;2024-01-25T15:43:27;14.00;99.90
3602;DHT22;1815;50.950;6.920;2024-01-25T15:45:53;13.90;99.90
3602;DHT22;1815;50.950;6.920;2024-01-25T15:48:18;13.80;99.90
3602;DHT22;1815;50.950;6.920;2024-01-25T15:50:44;13.80;99.90
3602;DHT22;1815;50.950;6.920;2024-01-25T15:53:10;13.70;99.90
3602;DHT22;1815;50.950;6.920;2024-01-25T15:55:36;13.60;99.90
3602;DHT22;1815;50.950;6.920;2024-01-25T15:58:05;13.60;99.90
3602;DHT22;1815;50.950;6.920;2024-01-25T16:00:34;13.50;99.90
3602;DHT22;1815;50.950;6.920;2024-01-25T16:03:00;13.40;99.90